KSHD

Shenandoah Valley Regional Airport

Staunton/Waynesboro/Harrisonburg, Virginia, USA
METAR KSHD 201715Z AUTO 24008KT 210V270 10SM CLR 18/08 A2981 RMK AO2 T01770078
Observed Flight Rules
Oct-20 @ 17:15 UTC (35 minutes ago) Visual Flight Rules
Wind Visibility Clouds
240° at 8 knots 10 miles
  • Clear skies
Temperatures Readings
Current 18°C / 64°F
Dewpoint 8°C / 46°F
Humidity 52%
Altimeter 29.81" Hg
Pressure 1009 hPa
Elevation 366
METAR KSHD 201715Z AUTO 24008KT 210V270 10SM CLR 18/08 A2981 RMK AO2 T01770078
Observed Flight Rules
Oct-20 @ 17:15 UTC
(35 minutes ago)
VFR
Wind Visibility
240° at 8 knots 10 miles
Clouds
  • Clear skies
Temperature Dewpoint
18°C / 64°F 8°C / 46°F
Humidity Altimeter Pressure
52% 29.81" Hg 1009 hPa